Disclaimer

Please do not use the information listed here in-flight or in-navigation, as they are not provided to us by the airports but are provided by volunteers, so they might be outdated.

Search


Regions


Airport information page

Radio informations:
Melbourne Center - 123.9 MHz
Common traffic adv. frequency (CTAF) - 134.0 MHz

Airport informations:
Latitude: 32° 13' 00.00" S
Longitude: 148° 34' 29.00" E
Elevation: 935 feet - 285 meters
Operating hours: N/A
Operating agency: Civil government, landing fees and diplomatic clearance may be required
Timezone: UTC+10(+11DT)
Fuel: Jet A1, without icing nhibitor.

100/130 MIL Spec, low lead, aviation gasoline (BLUE)

Runway information:
05/23 - 5604 x 148 feet< - >1708 x 45 meters
11/29 - 3501 x 60 feet< - >1067 x 18 meters

Recent METARs:
YSDU 141600Z AUTO 15005KT 9999 // NCD 16/14 Q1016
YSDU 141600Z AUTO 15005KT 9999 // NCD 16/14 Q1016
YSDU 141700Z AUTO 13007KT 100V160 9999 // NCD 16/14 Q1016

Airport on the map: